Beecher City, IL (62414)

4:12 AM CST on February 11, 2016 (GMT -0600)
NE Loudon Township | | Change Station
CLOSE
Current Station
Personal Weather Station
Location: Beecher City, IL
Elevation: 594 ft
Nearby Weather Stations

Elev 594 ft 39.14 °N, 88.81 °W | Updated 12 minutes ago

Overcast
Overcast
19.8 °F
Feels Like 14 °F
N
4.2
Wind Variable Wind from NNE

Today
High -- | Low -- °F
--% Chance of Precip.
Yesterday
High -- | Low -- °F
Precip. -- in
Pressure 30.23 in
Visibility 10.0 miles
Clouds Mostly Cloudy 1700 ft
Overcast 4400 ft
Windchill 14 °F
Dew Point 15 °F
Humidity 82%
Rainfall 0.00 in
Snow Depth Not available.
6:52 AM 5:27 PM
Waxing Crescent, 11% visible
METAR K1H2 110955Z AUTO 35005KT 10SM BKN017 OVC044 M06/M09 A3023 RMK AO2 T10631094
Pressure 30.23 in
Visibility 10.0 miles
Clouds Mostly Cloudy 1700 ft
Overcast 4400 ft
Windchill 14 °F
Dew Point 15 °F
Humidity 82%
Rainfall 0.00 in
Snow Depth Not available.
6:52 AM 5:27 PM
Waxing Crescent, 11% visible
METAR K1H2 110955Z AUTO 35005KT 10SM BKN017 OVC044 M06/M09 A3023 RMK AO2 T10631094

10-Day Weather Forecast

Almanac

Astronomy

Feb. 11, 2016 Rise Set
Actual Time
Civil Twilight
Nautical Twilight
Astronomical Twilight
Moon
Length of Visible Light
Length of Day
Tomorrow will be .
, % of the Moon is Illuminated

Today's Extremes

State Highs State Lows

Community

WunderPhotos

Upload Photos

1,892,030 photos uploaded!

WunderBlog® & News

Nearby

Air Quality

  Air Quality AQ Index Pollutant
Not available.

Snow Depth

Station Depth Elevation

Earthquake Activity

City Distance Mag. Time & Date
Minimum magnitude displayed is 2.5.

Coastal Water Temperatures

Place Temperature

Stations

Nearby Weather Stations

Station Location Temp. Windchill Dew Point Humidity Wind Precip. Elev Updated Type
                   

Watches & Warnings

There are currently no watches in effect.